Lexington, KY (40502)

10:54 AM EST on February 06, 2016 (GMT -0500)
Plainview | | Change Station
CLOSE
Current Station
Personal Weather Station
Location: Lexington, KY
Elevation: 1001 ft
Nearby Weather Stations

Elev 1001 ft 38.00 °N, 84.46 °W | Updated 6 minutes ago

Clear
Clear
47.1 °F
Feels Like 45 °F
N
4.2
Wind Variable Wind from ENE

Today
High -- | Low -- °F
--% Chance of Precip.
Yesterday
High -- | Low -- °F
Precip. -- in
Pressure 30.38 in
Visibility 10.0 miles
Clouds Clear
Windchill 45 °F
Dew Point 28 °F
Humidity 47%
Rainfall 0.00 in
Snow Depth Not available.
7:38 AM 6:06 PM
Waning Crescent, 5% visible
METAR KLEX 061454Z 24008KT 10SM CLR 03/M07 A3036 RMK AO2 SLP286 T00281067 53005 $
Pressure 30.38 in
Visibility 10.0 miles
Clouds Clear
Windchill 45 °F
Dew Point 28 °F
Humidity 47%
Rainfall 0.00 in
Snow Depth Not available.
7:38 AM 6:06 PM
Waning Crescent, 5% visible
METAR KLEX 061454Z 24008KT 10SM CLR 03/M07 A3036 RMK AO2 SLP286 T00281067 53005 $

10-Day Weather Forecast

Almanac

Astronomy

Feb. 06, 2016 Rise Set
Actual Time
Civil Twilight
Nautical Twilight
Astronomical Twilight
Moon
Length of Visible Light
Length of Day
Tomorrow will be .
, % of the Moon is Illuminated

Today's Extremes

State Highs State Lows

Community

WunderPhotos

Upload Photos

1,890,987 photos uploaded!

WunderBlog® & News

Nearby

Air Quality

  Air Quality AQ Index Pollutant
Not available.

Snow Depth

Station Depth Elevation

Earthquake Activity

City Distance Mag. Time & Date
Minimum magnitude displayed is 2.5.

Coastal Water Temperatures

Place Temperature

Stations

Nearby Weather Stations

Station Location Temp. Windchill Dew Point Humidity Wind Precip. Elev Updated Type
                   

Watches & Warnings

There are currently no watches in effect.